Time;durP1;ratioP1;P1;durP2;ratioP2;P2;SDS_P1;SDS_P2;PMS_P1;PMS_P2;Temp;Humidity;BMP_temperature;BMP_pressure;BME280_temperature;BME280_humidity;BME280_pressure;Samples;Min_cycle;Max_cycle;Signal;HPM_P1;HPM_P2
2024/01/13 00:00:01;;;;;;;16.67;2.85;;;;;;;;;;5050636;28;20028;-67
2024/01/13 00:02:27;;;;;;;9.18;2.35;;;;;;;;;;5066000;28;20036;-67
2024/01/13 00:04:53;;;;;;;10.23;2.22;;;;;;;;;;5049890;28;20464;-67
2024/01/13 00:07:19;;;;;;;7.05;2.25;;;;;;;;;;5048784;28;20101;-67
2024/01/13 00:09:46;;;;;;;9.85;2.40;;;;;;;;;;5049345;28;20062;-67
2024/01/13 00:12:12;;;;;;;9.93;3.30;;;;;;;;;;5049297;28;20032;-67
2024/01/13 00:14:38;;;;;;;10.43;2.78;;;;;;;;;;5049719;28;20134;-67
2024/01/13 00:17:04;;;;;;;11.02;2.42;;;;;;;;;;5048823;28;20038;-67
2024/01/13 00:19:30;;;;;;;13.38;3.60;;;;;;;;;;5046065;28;20032;-67
2024/01/13 00:21:56;;;;;;;16.30;3.22;;;;;;;;;;5045992;28;20044;-67
2024/01/13 00:24:22;;;;;;;9.43;2.63;;;;;;;;;;5048596;28;20025;-67
2024/01/13 00:26:48;;;;;;;9.40;2.60;;;;;;;;;;5049647;28;20139;-67
2024/01/13 00:29:14;;;;;;;11.82;2.63;;;;;;;;;;5048792;28;20491;-67
2024/01/13 00:31:40;;;;;;;7.78;2.60;;;;;;;;;;5048838;28;20722;-67
2024/01/13 00:34:06;;;;;;;6.75;1.83;;;;;;;;;;5049230;28;21698;-67
2024/01/13 00:36:32;;;;;;;9.30;2.50;;;;;;;;;;5049422;28;20037;-67
2024/01/13 00:38:58;;;;;;;7.07;2.17;;;;;;;;;;5048719;28;20036;-67
2024/01/13 00:41:24;;;;;;;6.82;2.10;;;;;;;;;;5049644;28;20404;-67
2024/01/13 00:43:50;;;;;;;8.95;2.15;;;;;;;;;;5049071;28;20483;-67
2024/01/13 00:46:16;;;;;;;15.05;1.77;;;;;;;;;;5049393;28;20122;-67
2024/01/13 00:48:43;;;;;;;7.15;2.13;;;;;;;;;;5046755;28;20040;-67
2024/01/13 00:51:12;;;;;;;6.15;1.88;;;;;;;;;;5047448;28;20028;-67
2024/01/13 00:53:41;;;;;;;8.38;1.88;;;;;;;;;;5045016;28;20036;-67
2024/01/13 00:56:07;;;;;;;6.30;1.63;;;;;;;;;;5048366;28;20032;-67
2024/01/13 00:58:33;;;;;;;8.40;1.77;;;;;;;;;;5046965;28;20036;-67
2024/01/13 01:00:59;;;;;;;7.13;2.08;;;;;;;;;;5049041;28;20044;-67
2024/01/13 01:03:26;;;;;;;11.48;1.67;;;;;;;;;;5048585;28;20056;-67
2024/01/13 01:05:53;;;;;;;10.10;1.90;;;;;;;;;;5048741;28;20155;-67
2024/01/13 01:08:19;;;;;;;8.68;2.00;;;;;;;;;;5046962;28;20104;-67
2024/01/13 01:10:45;;;;;;;8.05;1.77;;;;;;;;;;5047683;28;20433;-67
2024/01/13 01:13:11;;;;;;;12.30;2.05;;;;;;;;;;5047250;28;20060;-67
2024/01/13 01:15:37;;;;;;;5.28;1.50;;;;;;;;;;5048489;28;20124;-67
2024/01/13 01:18:03;;;;;;;10.27;1.70;;;;;;;;;;5048623;28;20396;-67
2024/01/13 01:20:29;;;;;;;7.93;1.60;;;;;;;;;;5048553;28;20029;-67
2024/01/13 01:22:56;;;;;;;9.38;1.88;;;;;;;;;;5047650;28;20069;-67
2024/01/13 01:25:22;;;;;;;8.52;1.85;;;;;;;;;;5046925;28;20041;-67
2024/01/13 01:27:48;;;;;;;7.80;1.67;;;;;;;;;;5048384;28;20032;-67
2024/01/13 01:30:14;;;;;;;7.15;2.05;;;;;;;;;;5041406;28;20042;-67
2024/01/13 01:32:40;;;;;;;5.75;1.95;;;;;;;;;;5047598;28;20094;-67
2024/01/13 01:35:09;;;;;;;8.02;1.95;;;;;;;;;;5048145;28;20024;-67
2024/01/13 01:37:36;;;;;;;7.38;2.20;;;;;;;;;;5047800;28;20075;-67
2024/01/13 01:40:02;;;;;;;10.27;1.92;;;;;;;;;;5047548;28;21391;-67
2024/01/13 01:42:28;;;;;;;7.93;2.08;;;;;;;;;;5062242;28;20036;-67
2024/01/13 01:44:55;;;;;;;7.40;1.95;;;;;;;;;;5047911;28;20036;-67
2024/01/13 01:47:21;;;;;;;6.03;1.85;;;;;;;;;;5047238;28;20109;-67
2024/01/13 01:49:48;;;;;;;5.75;2.03;;;;;;;;;;5047617;28;20060;-67
2024/01/13 01:52:15;;;;;;;6.22;2.28;;;;;;;;;;5047219;28;20044;-67
2024/01/13 01:54:42;;;;;;;9.93;2.30;;;;;;;;;;5058815;28;20420;-66
2024/01/13 01:57:09;;;;;;;8.38;2.00;;;;;;;;;;5047219;28;20110;-67
2024/01/13 01:59:35;;;;;;;10.20;2.80;;;;;;;;;;5046137;28;20036;-67
2024/01/13 02:02:01;;;;;;;6.60;2.05;;;;;;;;;;5047850;28;20135;-67
2024/01/13 02:04:27;;;;;;;6.07;1.88;;;;;;;;;;5047747;28;20094;-67
2024/01/13 02:06:53;;;;;;;7.63;2.00;;;;;;;;;;5047278;28;20044;-67
2024/01/13 02:09:20;;;;;;;9.45;2.30;;;;;;;;;;5047173;28;20037;-67
2024/01/13 02:11:46;;;;;;;8.95;2.63;;;;;;;;;;5046679;28;20028;-67
2024/01/13 02:14:12;;;;;;;8.07;2.58;;;;;;;;;;5045711;28;20055;-67
2024/01/13 02:16:38;;;;;;;6.43;1.92;;;;;;;;;;5047184;28;20040;-67
2024/01/13 02:19:04;;;;;;;5.90;2.10;;;;;;;;;;5046914;28;20074;-67
2024/01/13 02:21:30;;;;;;;10.80;2.10;;;;;;;;;;5046643;28;20032;-67
2024/01/13 02:23:56;;;;;;;9.40;2.30;;;;;;;;;;5046197;28;20045;-67
2024/01/13 02:26:22;;;;;;;6.28;2.03;;;;;;;;;;5046014;28;20040;-67
2024/01/13 02:28:48;;;;;;;10.65;2.55;;;;;;;;;;5047086;28;20048;-67
2024/01/13 02:31:15;;;;;;;7.63;2.17;;;;;;;;;;5045386;28;20037;-67
2024/01/13 02:33:41;;;;;;;6.22;2.17;;;;;;;;;;5045882;28;20036;-67
2024/01/13 02:36:07;;;;;;;7.45;2.05;;;;;;;;;;5046815;28;20032;-67
2024/01/13 02:38:33;;;;;;;7.10;1.88;;;;;;;;;;5046359;28;20052;-67
2024/01/13 02:40:59;;;;;;;8.77;1.85;;;;;;;;;;5046923;28;20035;-67
2024/01/13 02:43:25;;;;;;;9.95;2.22;;;;;;;;;;5046401;28;20032;-67
2024/01/13 02:45:52;;;;;;;6.32;1.63;;;;;;;;;;5045178;28;20148;-67
2024/01/13 02:48:18;;;;;;;4.10;1.50;;;;;;;;;;5047067;28;20121;-67
2024/01/13 02:51:01;;;;;;;6.28;1.70;;;;;;;;;;5046280;28;20028;-67
2024/01/13 02:53:27;;;;;;;6.57;2.05;;;;;;;;;;5046841;28;20033;-67
2024/01/13 02:55:53;;;;;;;9.15;2.35;;;;;;;;;;5046307;28;20127;-67
2024/01/13 02:58:19;;;;;;;8.65;2.10;;;;;;;;;;5046469;28;20127;-66
2024/01/13 03:00:45;;;;;;;12.85;2.10;;;;;;;;;;5046021;28;20060;-66
2024/01/13 03:03:12;;;;;;;4.95;1.60;;;;;;;;;;5046083;28;21752;-67
2024/01/13 03:05:38;;;;;;;5.95;2.05;;;;;;;;;;5046638;28;20048;-67
2024/01/13 03:08:04;;;;;;;17.52;2.17;;;;;;;;;;5045480;28;20045;-67
2024/01/13 03:10:31;;;;;;;8.50;1.90;;;;;;;;;;5044729;28;20047;-67
2024/01/13 03:12:57;;;;;;;6.05;1.95;;;;;;;;;;5044943;28;20032;-67
2024/01/13 03:15:23;;;;;;;9.50;2.10;;;;;;;;;;5045101;28;20111;-66
2024/01/13 03:17:49;;;;;;;9.68;2.00;;;;;;;;;;5045902;28;20950;-67
2024/01/13 03:20:15;;;;;;;4.95;1.52;;;;;;;;;;5056837;28;20545;-67
2024/01/13 03:22:41;;;;;;;5.30;1.40;;;;;;;;;;5046198;28;20040;-67
2024/01/13 03:25:08;;;;;;;8.18;2.13;;;;;;;;;;5045708;28;20052;-67
2024/01/13 03:27:34;;;;;;;11.02;3.17;;;;;;;;;;5046154;28;20368;-67
2024/01/13 03:30:00;;;;;;;3.97;1.50;;;;;;;;;;5043897;28;20068;-67
2024/01/13 03:32:26;;;;;;;4.68;1.58;;;;;;;;;;5045743;28;20500;-67
2024/01/13 03:34:52;;;;;;;4.82;1.33;;;;;;;;;;5044586;28;20025;-67
2024/01/13 03:37:18;;;;;;;5.50;1.50;;;;;;;;;;5045092;28;20067;-67
2024/01/13 03:39:44;;;;;;;6.32;1.88;;;;;;;;;;5046251;28;20043;-67
2024/01/13 03:42:10;;;;;;;5.40;1.63;;;;;;;;;;5043543;28;20036;-67
2024/01/13 03:44:36;;;;;;;3.40;1.40;;;;;;;;;;5045603;28;20361;-67
2024/01/13 03:47:02;;;;;;;5.65;1.50;;;;;;;;;;5045226;28;20155;-67
2024/01/13 03:49:28;;;;;;;7.20;2.00;;;;;;;;;;5045223;28;20045;-67
2024/01/13 03:51:54;;;;;;;7.93;1.55;;;;;;;;;;5044212;28;20033;-67
2024/01/13 03:54:20;;;;;;;3.75;1.60;;;;;;;;;;5044967;28;20087;-67
2024/01/13 03:56:47;;;;;;;3.88;1.50;;;;;;;;;;5045168;28;20037;-67
2024/01/13 03:59:15;;;;;;;7.07;1.63;;;;;;;;;;5045724;28;20455;-67
2024/01/13 04:01:41;;;;;;;6.95;1.95;;;;;;;;;;5038067;28;20578;-67
2024/01/13 04:04:07;;;;;;;9.75;1.88;;;;;;;;;;5044613;28;20051;-67
2024/01/13 04:06:33;;;;;;;3.83;1.55;;;;;;;;;;5044267;28;20024;-67
2024/01/13 04:08:59;;;;;;;7.95;1.65;;;;;;;;;;5044937;28;20142;-67
2024/01/13 04:11:25;;;;;;;8.63;1.77;;;;;;;;;;5043555;28;20041;-67
2024/01/13 04:13:51;;;;;;;7.32;1.90;;;;;;;;;;5044822;28;20051;-67
2024/01/13 04:16:18;;;;;;;4.05;1.40;;;;;;;;;;5044753;28;20036;-67
2024/01/13 04:18:44;;;;;;;6.65;2.00;;;;;;;;;;5045218;28;20030;-67
2024/01/13 04:21:10;;;;;;;6.65;1.90;;;;;;;;;;5045345;28;20040;-66
2024/01/13 04:23:36;;;;;;;6.60;2.03;;;;;;;;;;5044566;28;20110;-66
2024/01/13 04:26:02;;;;;;;5.90;1.88;;;;;;;;;;5047585;28;20032;-66
2024/01/13 04:28:28;;;;;;;6.05;1.98;;;;;;;;;;5049005;28;20020;-67
2024/01/13 04:30:54;;;;;;;6.70;2.20;;;;;;;;;;5048910;28;20032;-67
2024/01/13 04:33:20;;;;;;;5.63;1.92;;;;;;;;;;5048680;28;20037;-67
2024/01/13 04:35:47;;;;;;;6.75;2.15;;;;;;;;;;5047390;28;20032;-67
2024/01/13 04:38:13;;;;;;;8.95;2.28;;;;;;;;;;5048358;28;20060;-66
2024/01/13 04:40:39;;;;;;;6.13;2.10;;;;;;;;;;5048027;28;20048;-66
2024/01/13 04:43:05;;;;;;;7.05;2.00;;;;;;;;;;5048470;28;20040;-66
2024/01/13 04:45:31;;;;;;;9.93;2.10;;;;;;;;;;5048706;28;20044;-66
2024/01/13 04:47:58;;;;;;;7.53;1.80;;;;;;;;;;5047201;28;20107;-66
2024/01/13 04:50:24;;;;;;;8.23;1.92;;;;;;;;;;5048451;28;20390;-66
2024/01/13 04:52:50;;;;;;;7.30;1.83;;;;;;;;;;5064179;28;20037;-66
2024/01/13 04:55:16;;;;;;;6.25;2.30;;;;;;;;;;5047982;28;20036;-66
2024/01/13 04:57:42;;;;;;;6.25;1.58;;;;;;;;;;5047810;28;20036;-66
2024/01/13 05:00:08;;;;;;;6.55;2.00;;;;;;;;;;5048204;28;20025;-66
2024/01/13 05:02:34;;;;;;;6.15;2.20;;;;;;;;;;5048670;28;20114;-66
2024/01/13 05:05:00;;;;;;;5.75;2.20;;;;;;;;;;5048350;28;20044;-67
2024/01/13 05:07:26;;;;;;;5.75;1.73;;;;;;;;;;5048271;28;20052;-66
2024/01/13 05:09:52;;;;;;;8.73;2.00;;;;;;;;;;5048494;28;20033;-67
2024/01/13 05:12:18;;;;;;;8.65;1.80;;;;;;;;;;5045485;28;20036;-66
2024/01/13 05:14:45;;;;;;;5.75;2.20;;;;;;;;;;5047563;28;20045;-66
2024/01/13 05:17:11;;;;;;;9.15;2.00;;;;;;;;;;5048324;28;20032;-66
2024/01/13 05:19:37;;;;;;;10.48;2.47;;;;;;;;;;5047386;28;20029;-66
2024/01/13 05:22:03;;;;;;;5.45;1.52;;;;;;;;;;5047496;28;20040;-66
2024/01/13 05:24:30;;;;;;;5.95;1.60;;;;;;;;;;5048160;28;20033;-67
2024/01/13 05:26:56;;;;;;;5.82;1.50;;;;;;;;;;5047208;28;20037;-66
2024/01/13 05:29:22;;;;;;;6.80;1.85;;;;;;;;;;5046260;28;20098;-66
2024/01/13 05:31:48;;;;;;;6.70;1.63;;;;;;;;;;5048043;28;20036;-66
2024/01/13 05:34:14;;;;;;;4.60;1.50;;;;;;;;;;5048131;28;20123;-66
2024/01/13 05:36:40;;;;;;;5.60;1.70;;;;;;;;;;5047132;28;20063;-66
2024/01/13 05:39:06;;;;;;;5.43;1.40;;;;;;;;;;5047975;28;20025;-66
2024/01/13 05:41:32;;;;;;;4.03;1.45;;;;;;;;;;5048168;28;20036;-66
2024/01/13 05:43:58;;;;;;;5.32;1.42;;;;;;;;;;5047562;28;20028;-66
2024/01/13 05:46:24;;;;;;;5.32;1.50;;;;;;;;;;5047797;28;20078;-66
2024/01/13 05:48:51;;;;;;;4.32;1.48;;;;;;;;;;5047405;28;20040;-66
2024/01/13 05:51:17;;;;;;;6.07;1.33;;;;;;;;;;5047930;28;20118;-67
2024/01/13 05:53:44;;;;;;;4.70;1.48;;;;;;;;;;5047432;28;20120;-67
2024/01/13 05:56:10;;;;;;;4.68;1.48;;;;;;;;;;5047824;28;20032;-67
2024/01/13 05:58:37;;;;;;;5.55;1.50;;;;;;;;;;5047589;28;20090;-67
2024/01/13 06:01:03;;;;;;;3.67;1.48;;;;;;;;;;5039953;28;20033;-67
2024/01/13 06:03:29;;;;;;;6.15;1.38;;;;;;;;;;5047722;28;20028;-67
2024/01/13 06:05:55;;;;;;;4.45;1.80;;;;;;;;;;5046164;28;21795;-67
2024/01/13 06:08:21;;;;;;;4.25;1.55;;;;;;;;;;5047859;28;20044;-67
2024/01/13 06:10:47;;;;;;;3.28;1.30;;;;;;;;;;5047418;28;20040;-67
2024/01/13 06:13:13;;;;;;;3.88;1.35;;;;;;;;;;5047565;28;21169;-67
2024/01/13 06:15:39;;;;;;;2.97;1.45;;;;;;;;;;5047311;28;20388;-67
2024/01/13 06:18:05;;;;;;;3.85;1.00;;;;;;;;;;5046447;28;20189;-68
2024/01/13 06:20:32;;;;;;;3.65;1.17;;;;;;;;;;5047650;28;20086;-67
2024/01/13 06:22:58;;;;;;;2.50;1.10;;;;;;;;;;5046829;28;20071;-67
2024/01/13 06:25:24;;;;;;;1.55;0.80;;;;;;;;;;5047219;28;20044;-67
2024/01/13 06:27:50;;;;;;;2.60;1.00;;;;;;;;;;5046876;28;20037;-68
2024/01/13 06:30:16;;;;;;;1.80;1.00;;;;;;;;;;5046757;28;20041;-67
2024/01/13 06:32:42;;;;;;;2.88;1.00;;;;;;;;;;5046515;28;20125;-67
2024/01/13 06:35:08;;;;;;;3.55;1.02;;;;;;;;;;5046304;28;20032;-67
2024/01/13 06:37:34;;;;;;;1.98;0.90;;;;;;;;;;5045604;28;20033;-67
2024/01/13 06:40:00;;;;;;;2.40;0.70;;;;;;;;;;5046404;28;21181;-67
2024/01/13 06:42:26;;;;;;;2.47;0.75;;;;;;;;;;5046591;28;21682;-67
2024/01/13 06:44:53;;;;;;;4.43;0.93;;;;;;;;;;5045895;28;20098;-67
2024/01/13 06:47:19;;;;;;;2.45;0.75;;;;;;;;;;5046210;28;20036;-67
2024/01/13 06:49:45;;;;;;;1.58;0.63;;;;;;;;;;5045911;28;20028;-67
2024/01/13 06:52:12;;;;;;;3.28;0.70;;;;;;;;;;5046116;28;21625;-67
2024/01/13 06:54:38;;;;;;;3.00;0.73;;;;;;;;;;5046590;28;20031;-67
2024/01/13 06:57:05;;;;;;;3.33;0.88;;;;;;;;;;5046837;28;20020;-67
2024/01/13 06:59:31;;;;;;;2.83;0.80;;;;;;;;;;5045891;28;20152;-67
2024/01/13 07:01:57;;;;;;;2.85;0.93;;;;;;;;;;5046888;28;20052;-67
2024/01/13 07:04:23;;;;;;;2.17;0.85;;;;;;;;;;5045942;28;20047;-67
2024/01/13 07:06:49;;;;;;;3.55;1.20;;;;;;;;;;5045498;28;20047;-67
2024/01/13 07:09:17;;;;;;;5.15;1.13;;;;;;;;;;5045431;28;20071;-67
2024/01/13 07:11:48;;;;;;;3.50;1.05;;;;;;;;;;5046618;28;20125;-67
2024/01/13 07:14:14;;;;;;;3.78;1.10;;;;;;;;;;5045873;28;20076;-67
2024/01/13 07:16:40;;;;;;;2.30;0.85;;;;;;;;;;5046616;28;20029;-67
2024/01/13 07:19:07;;;;;;;6.90;1.33;;;;;;;;;;5046168;28;20050;-67
2024/01/13 07:21:33;;;;;;;4.72;1.20;;;;;;;;;;5045568;28;20086;-67
2024/01/13 07:23:59;;;;;;;4.70;1.90;;;;;;;;;;5046055;28;20064;-67
2024/01/13 07:26:25;;;;;;;5.93;1.40;;;;;;;;;;5045983;28;20040;-67
2024/01/13 07:28:51;;;;;;;4.38;1.30;;;;;;;;;;5061549;28;20028;-67
2024/01/13 07:31:18;;;;;;;5.93;1.40;;;;;;;;;;5046311;28;20070;-67
2024/01/13 07:33:44;;;;;;;6.70;1.95;;;;;;;;;;5045852;28;20040;-67
2024/01/13 07:36:10;;;;;;;8.02;2.42;;;;;;;;;;5046132;28;20043;-67
2024/01/13 07:38:36;;;;;;;3.92;1.80;;;;;;;;;;5044918;28;20043;-67
2024/01/13 07:41:02;;;;;;;8.20;3.53;;;;;;;;;;5046493;28;20044;-67
2024/01/13 07:43:28;;;;;;;8.52;3.85;;;;;;;;;;5045775;28;20040;-67
2024/01/13 07:45:54;;;;;;;10.73;4.40;;;;;;;;;;5045933;28;20090;-67
2024/01/13 07:48:20;;;;;;;9.20;4.43;;;;;;;;;;5046160;28;20032;-67
2024/01/13 07:50:46;;;;;;;11.45;5.80;;;;;;;;;;5043703;28;20029;-67
2024/01/13 07:53:13;;;;;;;12.38;6.18;;;;;;;;;;5042217;28;20029;-67
2024/01/13 07:55:39;;;;;;;14.45;7.82;;;;;;;;;;5044884;28;20032;-67
2024/01/13 07:58:05;;;;;;;18.00;8.50;;;;;;;;;;5046745;28;20028;-67
2024/01/13 08:00:31;;;;;;;15.88;8.27;;;;;;;;;;5048121;28;20102;-67
2024/01/13 08:02:57;;;;;;;14.52;7.03;;;;;;;;;;5049225;28;20800;-67
2024/01/13 08:05:23;;;;;;;13.85;8.18;;;;;;;;;;5048750;28;20036;-67
2024/01/13 08:07:49;;;;;;;19.58;8.20;;;;;;;;;;5048365;28;20032;-67
2024/01/13 08:10:15;;;;;;;17.90;8.30;;;;;;;;;;5048120;28;20107;-67
2024/01/13 08:12:41;;;;;;;17.55;8.88;;;;;;;;;;5047685;28;20764;-67
2024/01/13 08:15:07;;;;;;;14.85;8.82;;;;;;;;;;5048381;28;20093;-67
2024/01/13 08:17:33;;;;;;;20.63;11.23;;;;;;;;;;5048686;28;20037;-67
2024/01/13 08:20:02;;;;;;;22.55;11.07;;;;;;;;;;5048316;28;20032;-67
2024/01/13 08:22:29;;;;;;;20.70;11.75;;;;;;;;;;5048201;28;20109;-67
2024/01/13 08:24:55;;;;;;;21.33;12.40;;;;;;;;;;5048563;28;20172;-67
2024/01/13 08:27:21;;;;;;;24.88;14.20;;;;;;;;;;5046733;28;20098;-67
2024/01/13 08:29:47;;;;;;;28.10;15.20;;;;;;;;;;5049396;28;20041;-67
2024/01/13 08:32:13;;;;;;;26.83;15.98;;;;;;;;;;5050645;28;20055;-67
2024/01/13 08:34:39;;;;;;;27.70;16.75;;;;;;;;;;5049791;28;20028;-67
2024/01/13 08:37:05;;;;;;;34.55;17.90;;;;;;;;;;5050116;28;20040;-67
2024/01/13 08:39:32;;;;;;;34.58;20.83;;;;;;;;;;5049793;28;20032;-67
2024/01/13 08:41:58;;;;;;;35.53;20.80;;;;;;;;;;5059294;28;20392;-67
2024/01/13 08:44:24;;;;;;;37.50;19.83;;;;;;;;;;5047155;28;20024;-67
2024/01/13 08:46:50;;;;;;;35.75;20.02;;;;;;;;;;5048606;28;21055;-67
2024/01/13 08:49:16;;;;;;;34.20;19.52;;;;;;;;;;5050210;28;20068;-67
2024/01/13 08:51:42;;;;;;;35.67;20.85;;;;;;;;;;5049305;28;20857;-67
2024/01/13 08:54:09;;;;;;;35.20;20.70;;;;;;;;;;5050164;28;20032;-67
2024/01/13 08:56:35;;;;;;;33.97;19.88;;;;;;;;;;5041473;28;21836;-67
2024/01/13 08:59:04;;;;;;;40.67;21.75;;;;;;;;;;5048773;28;20043;-67
2024/01/13 09:01:30;;;;;;;34.25;20.55;;;;;;;;;;5049791;28;21020;-67
2024/01/13 09:03:57;;;;;;;35.35;21.38;;;;;;;;;;5063755;28;20630;-67
2024/01/13 09:06:23;;;;;;;38.70;22.50;;;;;;;;;;5048504;28;20991;-67
2024/01/13 09:08:49;;;;;;;39.22;23.42;;;;;;;;;;5062267;28;20043;-67
2024/01/13 09:11:15;;;;;;;38.05;22.17;;;;;;;;;;5046402;28;20139;-67
2024/01/13 09:13:41;;;;;;;44.88;25.52;;;;;;;;;;5046718;28;20080;-67
2024/01/13 09:16:07;;;;;;;43.60;25.65;;;;;;;;;;5044961;28;20051;-67
2024/01/13 09:18:33;;;;;;;42.25;25.38;;;;;;;;;;5046779;28;20037;-67
2024/01/13 09:20:59;;;;;;;44.03;25.85;;;;;;;;;;5044931;28;20043;-67
2024/01/13 09:23:25;;;;;;;40.20;25.05;;;;;;;;;;5045852;28;20077;-67
2024/01/13 09:25:51;;;;;;;40.88;26.85;;;;;;;;;;5045779;28;20036;-67
2024/01/13 09:28:17;;;;;;;45.97;29.02;;;;;;;;;;5044822;28;20036;-67
2024/01/13 09:30:43;;;;;;;45.92;28.25;;;;;;;;;;5046281;28;20045;-67
2024/01/13 09:33:09;;;;;;;48.15;29.83;;;;;;;;;;5045235;28;20048;-67
2024/01/13 09:35:35;;;;;;;47.17;30.15;;;;;;;;;;5046268;28;20037;-67
2024/01/13 09:38:01;;;;;;;48.90;29.65;;;;;;;;;;5047113;28;20037;-67
2024/01/13 09:40:27;;;;;;;47.05;29.92;;;;;;;;;;5045724;28;20098;-67
2024/01/13 09:43:05;;;;;;;46.42;28.00;;;;;;;;;;5045918;28;21248;-67
2024/01/13 09:45:32;;;;;;;44.00;26.80;;;;;;;;;;5045772;28;20032;-67
2024/01/13 09:47:59;;;;;;;50.30;29.48;;;;;;;;;;5044002;28;20622;-67
2024/01/13 09:50:25;;;;;;;47.25;28.52;;;;;;;;;;5045741;28;20610;-67
2024/01/13 09:52:52;;;;;;;45.50;28.42;;;;;;;;;;5046010;28;20040;-67
2024/01/13 09:55:18;;;;;;;48.92;28.00;;;;;;;;;;5045661;28;20044;-67
2024/01/13 09:57:45;;;;;;;46.83;29.17;;;;;;;;;;5046724;28;20039;-67
2024/01/13 10:00:13;;;;;;;48.25;30.70;;;;;;;;;;5045923;28;20040;-67
2024/01/13 10:02:39;;;;;;;50.63;29.60;;;;;;;;;;5046412;28;20174;-67
2024/01/13 10:05:05;;;;;;;43.40;28.48;;;;;;;;;;5045999;28;20036;-67
2024/01/13 10:07:38;;;;;;;42.53;29.10;;;;;;;;;;5045774;28;20620;-67
2024/01/13 10:10:06;;;;;;;42.97;28.17;;;;;;;;;;5044296;28;21597;-67
2024/01/13 10:12:33;;;;;;;45.75;26.63;;;;;;;;;;5044685;28;20090;-67
2024/01/13 10:14:59;;;;;;;40.13;26.80;;;;;;;;;;5046388;28;21346;-67
2024/01/13 10:17:25;;;;;;;43.60;26.45;;;;;;;;;;5045005;28;20116;-67
2024/01/13 10:19:51;;;;;;;41.78;25.23;;;;;;;;;;5043312;28;20063;-67
2024/01/13 10:22:18;;;;;;;38.35;24.75;;;;;;;;;;5045773;28;20040;-67
2024/01/13 10:24:44;;;;;;;39.45;25.77;;;;;;;;;;5043582;28;20036;-67
2024/01/13 10:27:10;;;;;;;41.17;24.67;;;;;;;;;;5045135;28;20024;-67
2024/01/13 10:29:36;;;;;;;41.28;21.70;;;;;;;;;;5045188;28;20058;-67
2024/01/13 10:32:02;;;;;;;40.70;22.65;;;;;;;;;;5045847;28;20048;-67
2024/01/13 10:34:29;;;;;;;39.00;22.20;;;;;;;;;;5045213;28;20036;-67
2024/01/13 10:37:08;;;;;;;36.47;19.77;;;;;;;;;;5059932;28;20024;-67
2024/01/13 10:39:34;;;;;;;35.35;19.40;;;;;;;;;;5046109;28;20028;-67
2024/01/13 10:42:00;;;;;;;33.53;18.42;;;;;;;;;;5045581;28;20021;-67
2024/01/13 10:44:29;;;;;;;32.17;17.70;;;;;;;;;;5048023;28;20682;-67
2024/01/13 10:46:56;;;;;;;31.08;15.90;;;;;;;;;;5047211;28;20044;-67
2024/01/13 10:49:28;;;;;;;30.90;15.85;;;;;;;;;;5047182;28;20028;-67
2024/01/13 10:51:57;;;;;;;29.23;14.55;;;;;;;;;;5045982;28;20020;-67
2024/01/13 10:54:25;;;;;;;26.55;15.07;;;;;;;;;;5046469;28;20031;-67
2024/01/13 10:56:52;;;;;;;30.10;15.10;;;;;;;;;;5043365;28;20036;-67
2024/01/13 10:59:19;;;;;;;24.88;14.88;;;;;;;;;;5045331;28;20044;-67
2024/01/13 11:01:46;;;;;;;24.98;13.68;;;;;;;;;;5044883;28;20139;-67
2024/01/13 11:04:13;;;;;;;28.38;14.40;;;;;;;;;;5043275;28;20024;-67
2024/01/13 11:06:39;;;;;;;24.73;12.15;;;;;;;;;;5057524;28;20036;-67
2024/01/13 11:09:08;;;;;;;28.10;12.73;;;;;;;;;;5039049;28;20608;-67
2024/01/13 11:11:41;;;;;;;21.13;12.23;;;;;;;;;;5040221;28;20035;-68
2024/01/13 11:14:08;;;;;;;27.63;14.50;;;;;;;;;;5041334;28;20464;-67
2024/01/13 11:16:36;;;;;;;25.42;11.90;;;;;;;;;;5058542;28;20033;-67
2024/01/13 11:19:02;;;;;;;23.33;11.75;;;;;;;;;;5043219;28;21715;-67
2024/01/13 11:21:30;;;;;;;23.08;11.20;;;;;;;;;;5045652;28;21795;-67
2024/01/13 11:24:01;;;;;;;25.45;12.70;;;;;;;;;;5044675;28;20054;-67
2024/01/13 11:26:32;;;;;;;17.08;10.15;;;;;;;;;;5045835;28;20032;-67
2024/01/13 11:28:58;;;;;;;25.08;10.63;;;;;;;;;;5046795;28;20033;-67
2024/01/13 11:31:37;;;;;;;24.15;10.32;;;;;;;;;;5045527;28;20029;-67
2024/01/13 11:34:05;;;;;;;16.40;8.93;;;;;;;;;;5046236;28;20036;-67
2024/01/13 11:36:33;;;;;;;15.70;9.20;;;;;;;;;;5046823;28;20395;-67
2024/01/13 11:39:00;;;;;;;19.70;10.15;;;;;;;;;;5045341;28;20076;-67
2024/01/13 11:41:45;;;;;;;25.25;9.15;;;;;;;;;;5045714;28;20020;-67
2024/01/13 11:44:11;;;;;;;20.70;8.60;;;;;;;;;;5047390;28;20110;-67
2024/01/13 11:46:38;;;;;;;17.42;8.43;;;;;;;;;;5045130;28;20101;-67
2024/01/13 11:49:05;;;;;;;15.18;8.13;;;;;;;;;;5045096;28;20029;-67
2024/01/13 11:51:49;;;;;;;13.00;6.90;;;;;;;;;;5045839;28;20115;-68
2024/01/13 11:54:16;;;;;;;16.98;6.82;;;;;;;;;;5046868;28;20726;-67
2024/01/13 11:56:43;;;;;;;12.82;6.93;;;;;;;;;;5044896;28;20036;-67
2024/01/13 11:59:09;;;;;;;15.05;7.25;;;;;;;;;;5061487;28;21203;-67
2024/01/13 12:01:35;;;;;;;17.70;7.47;;;;;;;;;;5047287;28;20049;-67
2024/01/13 12:04:01;;;;;;;12.68;6.80;;;;;;;;;;5045677;28;20064;-67
2024/01/13 12:06:28;;;;;;;13.20;6.30;;;;;;;;;;5045073;28;20032;-67
2024/01/13 12:08:54;;;;;;;13.32;6.78;;;;;;;;;;5045921;28;20037;-67
2024/01/13 12:11:22;;;;;;;15.43;5.95;;;;;;;;;;5047015;28;20104;-67
2024/01/13 12:13:48;;;;;;;14.25;5.85;;;;;;;;;;5043649;28;21829;-67
2024/01/13 12:16:16;;;;;;;15.65;6.03;;;;;;;;;;5030497;28;20118;-67
2024/01/13 12:18:46;;;;;;;12.52;5.95;;;;;;;;;;5036012;28;20051;-67
2024/01/13 12:21:13;;;;;;;11.38;5.47;;;;;;;;;;5033798;28;20025;-67
2024/01/13 12:23:39;;;;;;;9.90;4.97;;;;;;;;;;5035562;28;20105;-67
2024/01/13 12:26:06;;;;;;;11.18;4.63;;;;;;;;;;5035207;28;20491;-67
2024/01/13 12:28:32;;;;;;;8.95;4.65;;;;;;;;;;5037863;28;20032;-67
2024/01/13 12:31:02;;;;;;;9.60;4.35;;;;;;;;;;5035427;28;20115;-67
2024/01/13 12:33:28;;;;;;;8.82;4.47;;;;;;;;;;5036006;28;20033;-68
2024/01/13 12:36:00;;;;;;;12.55;5.10;;;;;;;;;;5036664;28;20024;-68
2024/01/13 12:38:30;;;;;;;11.55;4.63;;;;;;;;;;5037707;28;20101;-68
2024/01/13 12:40:57;;;;;;;10.70;4.15;;;;;;;;;;5037114;28;20036;-67
2024/01/13 12:43:23;;;;;;;11.48;3.70;;;;;;;;;;5035626;28;20043;-67
2024/01/13 12:45:50;;;;;;;10.65;3.80;;;;;;;;;;5038138;28;20028;-67
2024/01/13 12:48:16;;;;;;;9.80;3.80;;;;;;;;;;5047596;28;20492;-67
2024/01/13 12:50:43;;;;;;;8.55;3.35;;;;;;;;;;5045651;28;21242;-67
2024/01/13 12:53:09;;;;;;;8.55;3.05;;;;;;;;;;5045943;28;20032;-67
2024/01/13 12:55:37;;;;;;;7.07;2.45;;;;;;;;;;5048501;28;20178;-67
2024/01/13 12:58:03;;;;;;;7.03;3.13;;;;;;;;;;5049086;28;20122;-68
2024/01/13 13:00:29;;;;;;;10.50;3.08;;;;;;;;;;5048869;28;20024;-68
2024/01/13 13:02:58;;;;;;;8.43;2.50;;;;;;;;;;5049228;28;20040;-67
2024/01/13 13:05:24;;;;;;;7.13;2.10;;;;;;;;;;5046262;28;21477;-67
2024/01/13 13:07:51;;;;;;;7.97;2.05;;;;;;;;;;5048344;28;20033;-68
2024/01/13 13:10:20;;;;;;;14.18;2.30;;;;;;;;;;5049365;28;20086;-67
2024/01/13 13:12:49;;;;;;;9.88;1.80;;;;;;;;;;5048819;28;20086;-67
2024/01/13 13:15:16;;;;;;;7.13;2.17;;;;;;;;;;5048678;28;20036;-68
2024/01/13 13:17:42;;;;;;;7.43;1.88;;;;;;;;;;5062670;28;20029;-68
2024/01/13 13:20:09;;;;;;;10.45;1.60;;;;;;;;;;5049054;28;20024;-68
2024/01/13 13:22:38;;;;;;;4.88;1.65;;;;;;;;;;5046562;28;20231;-68
2024/01/13 13:25:07;;;;;;;6.95;1.60;;;;;;;;;;5047734;28;20122;-68
2024/01/13 13:27:34;;;;;;;10.48;2.17;;;;;;;;;;5039676;28;20028;-68
2024/01/13 13:30:00;;;;;;;7.60;1.60;;;;;;;;;;5047958;28;20540;-68
2024/01/13 13:32:26;;;;;;;11.20;1.80;;;;;;;;;;5048475;28;20044;-68
2024/01/13 13:34:52;;;;;;;10.35;2.00;;;;;;;;;;5047418;28;20025;-68
2024/01/13 13:37:18;;;;;;;7.55;1.73;;;;;;;;;;5047025;28;20032;-68
2024/01/13 13:39:44;;;;;;;6.47;1.77;;;;;;;;;;5044583;28;20032;-68
2024/01/13 13:42:11;;;;;;;9.65;2.30;;;;;;;;;;5046824;28;20033;-68
2024/01/13 13:44:37;;;;;;;9.52;1.83;;;;;;;;;;5046872;28;20040;-68
2024/01/13 13:47:07;;;;;;;8.13;1.95;;;;;;;;;;5046627;28;20034;-68
2024/01/13 13:49:33;;;;;;;8.80;1.58;;;;;;;;;;5047903;28;20163;-68
2024/01/13 13:51:59;;;;;;;12.60;2.00;;;;;;;;;;5046094;28;20044;-68
2024/01/13 13:54:25;;;;;;;9.20;2.20;;;;;;;;;;5046813;28;20032;-67
2024/01/13 13:56:51;;;;;;;9.98;2.30;;;;;;;;;;5044683;28;20138;-67
2024/01/13 13:59:18;;;;;;;8.57;1.90;;;;;;;;;;5046577;28;20025;-67
2024/01/13 14:01:44;;;;;;;8.73;1.80;;;;;;;;;;5047235;28;20056;-67
2024/01/13 14:04:10;;;;;;;9.40;1.42;;;;;;;;;;5046841;28;20036;-67
2024/01/13 14:06:37;;;;;;;8.98;2.10;;;;;;;;;;5046926;28;20032;-67
2024/01/13 14:09:05;;;;;;;8.20;1.63;;;;;;;;;;5046767;28;20739;-67
2024/01/13 14:11:33;;;;;;;12.20;3.28;;;;;;;;;;5046816;28;20042;-68
2024/01/13 14:14:00;;;;;;;8.43;1.83;;;;;;;;;;5045827;28;20087;-68
2024/01/13 14:16:27;;;;;;;7.53;1.70;;;;;;;;;;5043605;28;20032;-68
2024/01/13 14:18:53;;;;;;;7.90;1.67;;;;;;;;;;5042248;28;20102;-68
2024/01/13 14:21:19;;;;;;;9.95;1.58;;;;;;;;;;5045456;28;20086;-67
2024/01/13 14:23:45;;;;;;;9.68;1.77;;;;;;;;;;5045215;28;20032;-67
2024/01/13 14:26:12;;;;;;;7.55;2.00;;;;;;;;;;5046611;28;20057;-67
2024/01/13 14:28:38;;;;;;;11.05;2.35;;;;;;;;;;5047281;28;20035;-67